createdAt,value
2018-10-09T00:02:12.025Z,9.85
2018-10-09T00:04:39.688Z,9.98
2018-10-09T00:07:07.499Z,9.90
2018-10-09T00:09:35.112Z,9.85
2018-10-09T00:12:02.755Z,9.86
2018-10-09T00:14:30.437Z,9.94
2018-10-09T00:16:58.164Z,9.89
2018-10-09T00:19:25.763Z,9.93
2018-10-09T00:21:53.422Z,9.93
2018-10-09T00:24:21.112Z,9.82
2018-10-09T00:26:48.844Z,9.85
2018-10-09T00:29:16.508Z,9.81
2018-10-09T00:31:44.168Z,9.78
2018-10-09T00:34:11.818Z,9.73
2018-10-09T00:36:39.503Z,9.72
2018-10-09T00:39:08.536Z,9.71
2018-10-09T00:41:36.217Z,9.68
2018-10-09T00:44:03.959Z,9.65
2018-10-09T00:46:31.676Z,9.67
2018-10-09T00:48:59.424Z,9.65
2018-10-09T00:51:27.400Z,9.64
2018-10-09T00:53:55.125Z,9.66
2018-10-09T00:56:22.787Z,9.61
2018-10-09T00:58:50.500Z,9.56
2018-10-09T01:01:18.204Z,9.57
2018-10-09T01:03:45.892Z,9.54
2018-10-09T01:06:13.584Z,9.52
2018-10-09T01:08:41.308Z,9.51
2018-10-09T01:11:09.457Z,9.46
2018-10-09T01:13:37.291Z,9.45
2018-10-09T01:16:04.997Z,9.47
2018-10-09T01:18:32.664Z,9.49
2018-10-09T01:21:00.288Z,9.47
2018-10-09T01:23:27.936Z,9.46
2018-10-09T01:25:55.655Z,9.44
2018-10-09T01:28:23.340Z,9.44
2018-10-09T01:30:51.050Z,9.41
2018-10-09T01:36:15.815Z,9.46
2018-10-09T01:38:43.531Z,9.44
2018-10-09T01:41:13.442Z,9.46
2018-10-09T01:43:41.176Z,9.41
2018-10-09T01:46:08.891Z,9.45
2018-10-09T01:48:36.609Z,9.47
2018-10-09T01:51:04.376Z,9.44
2018-10-09T01:53:32.032Z,9.37
2018-10-09T01:55:59.821Z,9.42
2018-10-09T01:58:27.552Z,9.42
2018-10-09T02:00:55.236Z,9.39
2018-10-09T02:03:22.954Z,9.36
2018-10-09T02:05:50.648Z,9.26
2018-10-09T02:08:18.303Z,9.29
2018-10-09T02:10:46.072Z,9.28
2018-10-09T02:13:13.792Z,9.32
2018-10-09T02:15:41.488Z,9.30
2018-10-09T02:18:09.264Z,9.28
2018-10-09T02:20:36.948Z,9.33
2018-10-09T02:23:04.640Z,9.26
2018-10-09T02:25:32.336Z,9.25
2018-10-09T02:28:00.028Z,9.25
2018-10-09T02:30:27.685Z,9.27
2018-10-09T02:32:55.444Z,9.25
2018-10-09T02:35:23.205Z,9.18
2018-10-09T02:37:50.884Z,9.16
2018-10-09T02:40:18.674Z,9.11
2018-10-09T02:42:46.345Z,9.16
2018-10-09T02:45:14.020Z,9.02
2018-10-09T02:47:41.804Z,9.19
2018-10-09T02:50:09.493Z,9.07
2018-10-09T02:52:37.104Z,9.07
2018-10-09T02:55:04.879Z,9.05
2018-10-09T02:57:32.769Z,8.99
2018-10-09T03:00:00.512Z,8.93
2018-10-09T03:02:28.213Z,8.90
2018-10-09T03:04:55.896Z,8.85
2018-10-09T03:07:23.561Z,8.79
2018-10-09T03:09:51.274Z,8.81
2018-10-09T03:12:18.987Z,8.78
2018-10-09T03:14:46.644Z,8.81
2018-10-09T03:17:14.388Z,8.80
2018-10-09T03:19:42.079Z,8.75
2018-10-09T03:22:09.812Z,8.72
2018-10-09T03:24:37.579Z,8.74
2018-10-09T03:27:05.324Z,8.71
2018-10-09T03:29:33.076Z,8.63
2018-10-09T03:32:00.788Z,8.57
2018-10-09T03:34:28.460Z,8.58
2018-10-09T03:36:56.156Z,8.60
2018-10-09T03:39:23.841Z,8.51
2018-10-09T03:41:51.689Z,8.44
2018-10-09T03:44:19.480Z,8.48
2018-10-09T03:46:47.265Z,8.52
2018-10-09T03:49:14.892Z,8.43
2018-10-09T03:51:42.628Z,8.38
2018-10-09T03:54:10.345Z,8.39
2018-10-09T03:56:38.130Z,8.39
2018-10-09T03:59:05.812Z,8.35
2018-10-09T04:01:33.547Z,8.36
2018-10-09T04:04:01.270Z,8.36
2018-10-09T04:06:28.937Z,8.26
2018-10-09T04:08:56.642Z,8.20
2018-10-09T04:11:24.446Z,8.31
2018-10-09T04:13:52.141Z,8.29
2018-10-09T04:16:19.936Z,8.25
2018-10-09T04:18:47.668Z,8.24
2018-10-09T04:21:15.348Z,8.22
2018-10-09T04:23:43.144Z,8.20
2018-10-09T04:26:10.877Z,8.31
2018-10-09T04:28:38.728Z,8.23
2018-10-09T04:31:06.459Z,8.17
2018-10-09T04:33:34.224Z,8.23
2018-10-09T04:36:01.955Z,8.21
2018-10-09T04:38:29.762Z,8.13
2018-10-09T04:40:57.450Z,8.11
2018-10-09T04:43:25.192Z,8.13
2018-10-09T04:45:52.899Z,8.17
2018-10-09T04:48:20.600Z,8.14
2018-10-09T04:50:48.277Z,8.13
2018-10-09T04:53:15.961Z,8.11
2018-10-09T04:55:43.641Z,8.06
2018-10-09T04:58:12.230Z,8.03
2018-10-09T05:00:40.025Z,8.06
2018-10-09T05:03:07.752Z,8.03
2018-10-09T05:05:35.492Z,8.07
2018-10-09T05:08:03.211Z,8.04
2018-10-09T05:10:31.016Z,8.02
2018-10-09T05:12:58.977Z,7.98
2018-10-09T05:15:26.733Z,8.02
2018-10-09T05:17:54.751Z,7.99
2018-10-09T05:20:22.569Z,8.01
2018-10-09T05:22:50.462Z,8.01
2018-10-09T05:25:18.449Z,8.00
2018-10-09T05:27:46.357Z,8.04
2018-10-09T05:30:14.034Z,8.04
2018-10-09T05:32:41.981Z,8.07
2018-10-09T05:35:10.088Z,8.02
2018-10-09T05:37:38.075Z,8.04
2018-10-09T05:40:05.944Z,8.03
2018-10-09T05:42:33.829Z,8.03
2018-10-09T05:45:01.548Z,8.02
2018-10-09T05:47:29.735Z,8.01
2018-10-09T05:49:57.446Z,7.99
2018-10-09T05:52:25.656Z,8.03
2018-10-09T05:54:53.517Z,8.01
2018-10-09T05:57:21.524Z,8.03
2018-10-09T05:59:49.352Z,8.00
2018-10-09T06:02:17.400Z,8.06
2018-10-09T06:04:45.062Z,8.13
2018-10-09T06:07:12.988Z,8.20
2018-10-09T06:09:40.940Z,8.27
2018-10-09T06:12:08.931Z,8.32
2018-10-09T06:14:36.650Z,8.40
2018-10-09T06:17:04.360Z,8.50
2018-10-09T06:19:32.100Z,8.58
2018-10-09T06:21:59.859Z,8.62
2018-10-09T06:24:27.627Z,8.74
2018-10-09T06:26:55.351Z,8.78
2018-10-09T06:29:23.148Z,8.92
2018-10-09T06:31:50.858Z,9.04
2018-10-09T06:34:18.540Z,9.14
2018-10-09T06:36:46.336Z,9.22
2018-10-09T06:39:14.064Z,9.35
2018-10-09T06:41:44.229Z,9.40
2018-10-09T06:44:12.037Z,9.47
2018-10-09T06:46:39.685Z,9.50
2018-10-09T06:49:07.353Z,9.67
2018-10-09T06:51:35.133Z,9.72
2018-10-09T06:54:02.963Z,9.80
2018-10-09T06:56:30.540Z,9.90
2018-10-09T06:58:58.264Z,10.03
2018-10-09T07:01:25.974Z,10.10
2018-10-09T07:03:53.641Z,10.20
2018-10-09T07:06:21.446Z,10.31
2018-10-09T07:08:49.129Z,10.36
2018-10-09T07:11:16.945Z,10.42
2018-10-09T07:13:44.673Z,10.51
2018-10-09T07:16:12.332Z,10.66
2018-10-09T07:18:40.069Z,10.69
2018-10-09T07:21:07.807Z,10.78
2018-10-09T07:23:35.496Z,10.89
2018-10-09T07:26:03.155Z,11.01
2018-10-09T07:28:30.905Z,11.00
2018-10-09T07:30:58.610Z,11.10
2018-10-09T07:33:26.260Z,11.13
2018-10-09T07:35:53.937Z,11.25
2018-10-09T07:38:21.626Z,11.23
2018-10-09T07:40:49.290Z,11.30
2018-10-09T07:43:17.077Z,11.33
2018-10-09T07:45:44.740Z,11.29
2018-10-09T07:48:12.461Z,11.44
2018-10-09T07:50:40.249Z,11.51
2018-10-09T07:53:07.889Z,11.53
2018-10-09T07:55:35.649Z,11.58
2018-10-09T07:58:03.429Z,11.84
2018-10-09T08:00:31.173Z,11.96
2018-10-09T08:02:58.869Z,12.07
2018-10-09T08:05:26.561Z,12.01
2018-10-09T08:07:54.333Z,12.15
2018-10-09T08:10:22.082Z,12.20
2018-10-09T08:12:49.716Z,12.32
2018-10-09T08:15:17.476Z,12.39
2018-10-09T08:17:45.181Z,12.42
2018-10-09T08:20:12.937Z,12.53
2018-10-09T08:22:40.712Z,12.62
2018-10-09T08:25:08.340Z,12.83
2018-10-09T08:27:36.030Z,12.79
2018-10-09T08:30:03.845Z,12.90
2018-10-09T08:32:31.521Z,12.97
2018-10-09T08:34:59.213Z,13.10
2018-10-09T08:37:26.948Z,13.10
2018-10-09T08:39:54.598Z,13.29
2018-10-09T08:42:22.352Z,13.22
2018-10-09T08:44:50.081Z,13.34
2018-10-09T08:47:17.757Z,13.41
2018-10-09T08:49:50.053Z,13.49
2018-10-09T08:52:17.715Z,13.48
2018-10-09T08:54:45.436Z,13.46
2018-10-09T08:57:13.146Z,13.56
2018-10-09T08:59:40.813Z,13.64
2018-10-09T09:02:08.503Z,13.48
2018-10-09T09:04:36.195Z,13.61
2018-10-09T09:07:03.885Z,13.61
2018-10-09T09:09:31.634Z,13.53
2018-10-09T09:11:59.337Z,13.62
2018-10-09T09:14:27.085Z,13.69
2018-10-09T09:16:54.789Z,13.77
2018-10-09T09:19:22.575Z,13.89
2018-10-09T09:21:50.339Z,13.99
2018-10-09T09:24:17.977Z,14.13
2018-10-09T09:26:45.812Z,14.15
2018-10-09T09:29:13.348Z,14.16
2018-10-09T09:31:41.001Z,14.25
2018-10-09T09:34:08.761Z,14.42
2018-10-09T09:36:36.498Z,14.62
2018-10-09T09:39:06.419Z,14.75
2018-10-09T09:41:34.117Z,14.84
2018-10-09T09:44:01.901Z,15.02
2018-10-09T09:46:29.684Z,15.19
2018-10-09T09:48:57.377Z,15.29
2018-10-09T09:51:25.190Z,15.46
2018-10-09T09:53:52.846Z,15.65
2018-10-09T09:56:20.609Z,15.60
2018-10-09T09:58:48.511Z,15.92
2018-10-09T10:01:15.993Z,15.94
2018-10-09T10:03:43.803Z,16.17
2018-10-09T10:06:11.440Z,16.23
2018-10-09T10:08:39.129Z,16.38
2018-10-09T10:11:06.936Z,16.64
2018-10-09T10:13:34.669Z,16.72
2018-10-09T10:16:02.358Z,17.02
2018-10-09T10:18:30.105Z,17.06
2018-10-09T10:20:57.828Z,17.10
2018-10-09T10:23:25.541Z,17.13
2018-10-09T10:25:53.245Z,17.31
2018-10-09T10:28:21.054Z,17.44
2018-10-09T10:30:48.748Z,17.52
2018-10-09T10:33:16.424Z,17.65
2018-10-09T10:35:44.275Z,17.74
2018-10-09T10:38:11.832Z,17.87
2018-10-09T10:40:39.496Z,17.99
2018-10-09T10:43:07.234Z,18.19
2018-10-09T10:45:34.933Z,18.34
2018-10-09T10:48:02.594Z,18.33
2018-10-09T10:50:30.284Z,18.55
2018-10-09T10:52:58.058Z,18.79
2018-10-09T10:55:25.704Z,18.96
2018-10-09T10:57:53.436Z,19.09
2018-10-09T11:00:21.170Z,19.51
2018-10-09T11:02:48.940Z,19.75
2018-10-09T11:05:16.663Z,19.97
2018-10-09T11:07:44.407Z,20.29
2018-10-09T11:10:12.090Z,20.55
2018-10-09T11:12:39.917Z,20.72
2018-10-09T11:15:07.613Z,20.75
2018-10-09T11:17:35.254Z,20.91
2018-10-09T11:20:06.357Z,21.13
2018-10-09T11:22:34.057Z,21.35
2018-10-09T11:25:01.765Z,21.47
2018-10-09T11:27:29.645Z,21.41
2018-10-09T11:29:57.305Z,21.45
2018-10-09T11:32:25.282Z,21.54
2018-10-09T11:34:52.960Z,21.59
2018-10-09T11:37:20.666Z,21.57
2018-10-09T11:39:48.371Z,21.73
2018-10-09T11:42:16.033Z,21.83
2018-10-09T11:44:43.725Z,21.79
2018-10-09T11:47:11.388Z,21.75
2018-10-09T11:49:39.053Z,21.59
2018-10-09T11:52:06.838Z,21.64
2018-10-09T11:54:34.638Z,21.48
2018-10-09T11:57:02.276Z,21.46
2018-10-09T11:59:29.953Z,21.56
2018-10-09T12:01:57.644Z,21.44
2018-10-09T12:04:25.368Z,21.54
2018-10-09T12:06:53.048Z,21.57
2018-10-09T12:09:20.773Z,21.62
2018-10-09T12:11:48.592Z,21.59
2018-10-09T12:14:16.320Z,21.39
2018-10-09T12:16:44.027Z,21.43
2018-10-09T12:19:11.708Z,21.34
2018-10-09T12:21:39.465Z,21.53
2018-10-09T12:24:07.212Z,21.34
2018-10-09T12:26:38.757Z,21.52
2018-10-09T12:29:06.569Z,21.40
2018-10-09T12:31:34.278Z,21.47
2018-10-09T12:34:01.968Z,21.39
2018-10-09T12:36:29.697Z,21.34
2018-10-09T12:38:57.391Z,21.16
2018-10-09T12:41:25.109Z,21.21
2018-10-09T12:43:52.903Z,21.17
2018-10-09T12:46:20.607Z,21.06
2018-10-09T12:48:48.326Z,21.13
2018-10-09T12:51:16.111Z,21.07
2018-10-09T12:53:43.835Z,20.97
2018-10-09T12:56:11.722Z,21.03
2018-10-09T12:58:39.536Z,21.05
2018-10-09T13:01:07.232Z,21.08
2018-10-09T13:03:35.013Z,21.08
2018-10-09T13:06:02.724Z,21.05
2018-10-09T13:08:30.368Z,21.01
2018-10-09T13:11:02.353Z,20.99
2018-10-09T13:13:30.061Z,20.90
2018-10-09T13:15:57.781Z,20.99
2018-10-09T13:18:25.473Z,21.03
2018-10-09T13:20:53.368Z,20.91
2018-10-09T13:23:21.009Z,20.88
2018-10-09T13:25:48.698Z,20.86
2018-10-09T13:28:16.405Z,20.88
2018-10-09T13:30:44.126Z,20.93
2018-10-09T13:33:11.832Z,20.96
2018-10-09T13:35:39.540Z,20.96
2018-10-09T13:38:07.277Z,20.95
2018-10-09T13:40:34.870Z,21.05
2018-10-09T13:43:02.621Z,21.13
2018-10-09T13:45:30.376Z,21.15
2018-10-09T13:47:58.045Z,21.02
2018-10-09T13:50:25.791Z,21.04
2018-10-09T13:52:53.461Z,21.19
2018-10-09T13:55:21.206Z,21.19
2018-10-09T13:57:48.892Z,21.16
2018-10-09T14:00:16.622Z,21.18
2018-10-09T14:02:45.307Z,21.23
2018-10-09T14:05:13.372Z,21.30
2018-10-09T14:07:41.169Z,21.25
2018-10-09T14:10:08.914Z,21.22
2018-10-09T14:12:36.632Z,21.32
2018-10-09T14:15:04.653Z,21.37
2018-10-09T14:17:32.316Z,21.29
2018-10-09T14:20:00.043Z,21.32
2018-10-09T14:22:27.768Z,21.35
2018-10-09T14:24:55.477Z,21.27
2018-10-09T14:27:23.245Z,21.32
2018-10-09T14:29:51.447Z,21.34
2018-10-09T14:32:19.997Z,21.36
2018-10-09T14:34:48.149Z,21.34
2018-10-09T14:37:16.439Z,21.37
2018-10-09T14:39:44.131Z,21.36
2018-10-09T14:42:13.608Z,21.34
2018-10-09T14:44:46.774Z,21.36
2018-10-09T14:47:14.632Z,21.36
2018-10-09T14:49:42.333Z,21.37
2018-10-09T14:52:10.000Z,21.34
2018-10-09T14:54:38.856Z,21.36
2018-10-09T14:57:06.958Z,21.33
2018-10-09T14:59:35.085Z,21.34
2018-10-09T15:02:02.809Z,21.36
2018-10-09T15:04:30.510Z,21.36
2018-10-09T15:07:07.429Z,21.38
2018-10-09T15:09:37.429Z,21.33
2018-10-09T15:12:05.549Z,21.31
2018-10-09T15:14:41.351Z,21.28
2018-10-09T15:17:16.474Z,21.31
2018-10-09T15:19:44.256Z,21.32
2018-10-09T15:22:11.936Z,21.32
2018-10-09T15:24:39.677Z,21.26
2018-10-09T15:27:07.417Z,21.27
2018-10-09T15:29:35.105Z,21.26
2018-10-09T15:32:02.852Z,21.24
2018-10-09T15:34:30.565Z,21.23
2018-10-09T15:36:58.282Z,21.22
2018-10-09T15:39:26.062Z,21.20
2018-10-09T15:41:53.777Z,21.17
2018-10-09T15:44:21.483Z,21.16
2018-10-09T15:46:49.169Z,21.13
2018-10-09T15:49:16.992Z,21.09
2018-10-09T15:51:44.825Z,21.08
2018-10-09T15:54:12.603Z,21.00
2018-10-09T15:56:40.399Z,20.96
2018-10-09T15:59:08.121Z,20.88
2018-10-09T16:01:36.068Z,20.84
2018-10-09T16:04:03.785Z,20.79
2018-10-09T16:06:31.501Z,20.70
2018-10-09T16:08:59.632Z,20.63
2018-10-09T16:11:27.604Z,20.57
2018-10-09T16:13:56.098Z,20.48
2018-10-09T16:19:21.093Z,20.30
2018-10-09T16:21:48.845Z,20.29
2018-10-09T16:24:16.789Z,20.20
2018-10-09T16:26:45.881Z,20.13
2018-10-09T16:29:13.620Z,20.00
2018-10-09T16:31:41.261Z,19.93
2018-10-09T16:34:09.621Z,19.82
2018-10-09T16:36:38.672Z,19.80
2018-10-09T16:39:10.475Z,19.72
2018-10-09T16:41:39.525Z,19.52
2018-10-09T16:44:08.286Z,19.52
2018-10-09T16:46:36.904Z,19.37
2018-10-09T16:49:06.281Z,19.31
2018-10-09T16:51:34.600Z,19.13
2018-10-09T16:54:02.453Z,19.01
2018-10-09T16:56:30.102Z,19.01
2018-10-09T16:58:57.828Z,18.78
2018-10-09T17:01:26.429Z,18.63
2018-10-09T17:03:54.117Z,18.58
2018-10-09T17:06:21.989Z,18.54
2018-10-09T17:08:50.047Z,18.41
2018-10-09T17:11:18.552Z,18.31
2018-10-09T17:13:46.293Z,18.15
2018-10-09T17:16:14.709Z,18.20
2018-10-09T17:18:43.501Z,18.09
2018-10-09T17:21:11.231Z,18.09
2018-10-09T17:23:39.010Z,17.86
2018-10-09T17:26:06.926Z,17.72
2018-10-09T17:28:34.967Z,17.59
2018-10-09T17:31:02.680Z,17.62
2018-10-09T17:33:31.482Z,17.55
2018-10-09T17:35:59.113Z,17.64
2018-10-09T17:38:26.785Z,17.56
2018-10-09T17:40:54.478Z,17.31
2018-10-09T17:43:22.269Z,17.09
2018-10-09T17:45:49.961Z,16.98
2018-10-09T17:48:17.660Z,16.83
2018-10-09T17:50:45.499Z,16.73
2018-10-09T17:53:13.947Z,16.58
2018-10-09T17:55:41.638Z,16.52
2018-10-09T17:58:11.673Z,16.50
2018-10-09T18:00:39.354Z,16.45
2018-10-09T18:03:07.375Z,16.41
2018-10-09T18:05:35.245Z,16.38
2018-10-09T18:08:03.090Z,16.28
2018-10-09T18:10:30.787Z,16.22
2018-10-09T18:12:58.556Z,16.24
2018-10-09T18:15:26.477Z,16.09
2018-10-09T18:17:54.256Z,16.05
2018-10-09T18:20:22.249Z,15.99
2018-10-09T18:22:50.129Z,16.00
2018-10-09T18:25:17.840Z,15.93
2018-10-09T18:27:45.512Z,15.76
2018-10-09T18:30:13.466Z,15.83
2018-10-09T18:32:42.131Z,15.81
2018-10-09T18:35:09.934Z,15.84
2018-10-09T18:37:37.638Z,15.66
2018-10-09T18:40:05.633Z,15.56
2018-10-09T18:42:33.841Z,15.63
2018-10-09T18:45:01.691Z,15.39
2018-10-09T18:47:35.465Z,15.35
2018-10-09T18:50:03.478Z,15.19
2018-10-09T18:52:31.600Z,15.07
2018-10-09T18:54:59.372Z,15.07
2018-10-09T18:57:27.192Z,14.93
2018-10-09T18:59:54.860Z,14.88
2018-10-09T19:02:22.599Z,14.79
2018-10-09T19:04:50.382Z,14.71
2018-10-09T19:07:18.030Z,14.51
2018-10-09T19:09:45.840Z,14.63
2018-10-09T19:12:13.654Z,14.57
2018-10-09T19:14:41.422Z,14.52
2018-10-09T19:17:09.190Z,14.50
2018-10-09T19:19:36.916Z,14.57
2018-10-09T19:22:04.653Z,14.54
2018-10-09T19:24:34.013Z,14.42
2018-10-09T19:27:01.840Z,14.32
2018-10-09T19:29:30.221Z,14.21
2018-10-09T19:31:58.007Z,14.13
2018-10-09T19:34:25.888Z,14.08
2018-10-09T19:36:53.869Z,14.07
2018-10-09T19:39:21.632Z,13.93
2018-10-09T19:41:49.300Z,13.93
2018-10-09T19:44:16.926Z,13.81
2018-10-09T19:46:44.906Z,13.73
2018-10-09T19:49:12.660Z,13.83
2018-10-09T19:51:40.325Z,13.77
2018-10-09T19:54:07.985Z,13.70
2018-10-09T19:56:35.653Z,13.58
2018-10-09T19:59:03.513Z,13.51
2018-10-09T20:01:31.685Z,13.59
2018-10-09T20:03:59.388Z,13.68
2018-10-09T20:06:27.801Z,13.64
2018-10-09T20:08:55.557Z,13.53
2018-10-09T20:11:23.321Z,13.46
2018-10-09T20:13:50.949Z,13.45
2018-10-09T20:16:18.825Z,13.39
2018-10-09T20:18:47.321Z,13.35
2018-10-09T20:21:15.003Z,13.26
2018-10-09T20:23:42.734Z,13.27
2018-10-09T20:26:17.199Z,13.19
2018-10-09T20:28:44.941Z,13.15
2018-10-09T20:31:13.149Z,13.17
2018-10-09T20:33:40.841Z,13.12
2018-10-09T20:36:08.644Z,13.06
2018-10-09T20:38:36.350Z,12.95
2018-10-09T20:41:04.130Z,12.77
2018-10-09T20:43:31.969Z,12.84
2018-10-09T20:45:59.577Z,12.88
2018-10-09T20:48:27.345Z,12.88
2018-10-09T20:50:55.039Z,12.84
2018-10-09T20:53:24.120Z,12.81
2018-10-09T20:55:52.117Z,12.80
2018-10-09T20:58:19.994Z,12.69
2018-10-09T21:00:47.737Z,12.69
2018-10-09T21:03:15.554Z,12.58
2018-10-09T21:05:43.351Z,12.62
2018-10-09T21:08:10.945Z,12.56
2018-10-09T21:10:38.842Z,12.52
2018-10-09T21:13:06.607Z,12.41
2018-10-09T21:15:34.426Z,12.34
2018-10-09T21:18:02.179Z,12.31
2018-10-09T21:20:29.909Z,12.26
2018-10-09T21:22:57.744Z,12.23
2018-10-09T21:25:27.372Z,12.17
2018-10-09T21:27:56.922Z,12.15
2018-10-09T21:30:24.645Z,12.02
2018-10-09T21:33:00.170Z,12.01
2018-10-09T21:35:35.239Z,11.98
2018-10-09T21:38:03.497Z,11.97
2018-10-09T21:40:31.489Z,11.94
2018-10-09T21:43:05.115Z,11.90
2018-10-09T21:45:35.239Z,11.88
2018-10-09T21:48:07.338Z,11.83
2018-10-09T21:50:35.159Z,11.80
2018-10-09T21:53:02.849Z,11.67
2018-10-09T21:55:34.036Z,11.66
2018-10-09T21:58:01.813Z,11.72
2018-10-09T22:00:29.605Z,11.49
2018-10-09T22:02:57.337Z,11.46
2018-10-09T22:05:25.100Z,11.49
2018-10-09T22:07:52.793Z,11.59
2018-10-09T22:10:20.497Z,11.48
2018-10-09T22:12:48.229Z,11.45
2018-10-09T22:15:15.934Z,11.30
2018-10-09T22:17:43.626Z,11.34
2018-10-09T22:20:11.317Z,11.34
2018-10-09T22:22:39.017Z,11.37
2018-10-09T22:25:06.818Z,11.41
2018-10-09T22:27:34.768Z,11.35
2018-10-09T22:30:02.525Z,11.30
2018-10-09T22:32:30.293Z,11.27
2018-10-09T22:34:57.966Z,11.21
2018-10-09T22:37:25.646Z,11.13
2018-10-09T22:39:53.329Z,11.10
2018-10-09T22:42:21.054Z,11.18
2018-10-09T22:44:48.708Z,11.25
2018-10-09T22:47:16.445Z,11.14
2018-10-09T22:49:44.158Z,11.14
2018-10-09T22:52:11.903Z,11.10
2018-10-09T22:54:39.553Z,11.02
2018-10-09T22:57:07.278Z,11.05
2018-10-09T22:59:34.969Z,10.96
2018-10-09T23:02:02.913Z,10.86
2018-10-09T23:04:30.636Z,10.84
2018-10-09T23:06:58.356Z,10.86
2018-10-09T23:09:26.128Z,10.86
2018-10-09T23:11:53.904Z,10.79
2018-10-09T23:14:21.613Z,10.69
2018-10-09T23:16:49.322Z,10.68
2018-10-09T23:19:17.050Z,10.67
2018-10-09T23:21:44.766Z,10.59
2018-10-09T23:24:12.485Z,10.53
2018-10-09T23:26:40.175Z,10.52
2018-10-09T23:29:07.882Z,10.53
2018-10-09T23:31:35.649Z,10.52
2018-10-09T23:34:03.437Z,10.52
2018-10-09T23:36:33.333Z,10.50
2018-10-09T23:39:01.046Z,10.55
2018-10-09T23:41:28.749Z,10.47
2018-10-09T23:43:56.397Z,10.44
2018-10-09T23:46:24.142Z,10.43
2018-10-09T23:48:51.822Z,10.38
2018-10-09T23:51:19.510Z,10.38
2018-10-09T23:53:47.216Z,10.33
2018-10-09T23:56:14.989Z,10.27
2018-10-09T23:58:42.683Z,10.32
